Terminal Aerodrome Forecast
Issued by NWS

Current Version | Previous Version | Text Only | Print | Product List | Glossary On
Versions: 1 2 3 4 5 6 7 8 9 10 11 12 13
000
FTUS42 KTAE 201720
TAFABY
TAF
KABY 201720Z 2018/2118 27005KT P6SM SCT040
     FM210000 00000KT P6SM BKN250
     FM210900 00000KT 6SM BR SCT250=

USA.gov is the U.S. government's official web portal to all federal, state and local government web resources and services.